Isabella — 9HSL7 — position and weather

sailwx.info

Track history (hours):
 
Tides and Currents Weather Stations Pressure Air Temp Water Temp Dewpoint Dewpoint Depression Visibility Wind Speed Wind Dir Waves Ship Positions

Isabella

Last reported at 2017-Apr-29 02:42 UTC. Time now 2017-Apr-29 07:39 UTC.
Position N 38°45' W 073°36'.

Length 244 m; draft 8.2 m.

Type: Tanker. MMSI: 215545000.

Date/timePositionNaut miles runAvg speedWind from/ knotsBaromVisibWave heightAir tempDewpointWater temp
2017-Apr-29 02:42N 38°45' W 073°36'811.3
2017-Apr-29 02:02N 38°46' W 073°46'1911.7
2017-Apr-29 00:25N 38°45' W 074°10'511.3
2017-Apr-29 00:00N 38°45' W 074°16'611.3
2017-Apr-28 23:30N 38°45' W 074°23'611.2
2017-Apr-28 23:00N 38°46' W 074°30'611.4
2017-Apr-28 22:30N 38°46' W 074°38'510.4
2017-Apr-28 22:00N 38°46' W 074°44'910.1
2017-Apr-28 21:06N 38°46' W 074°56'2 9.6
2017-Apr-28 20:51N 38°46' W 074°59'5 7.7
2017-Apr-28 20:09N 38°50' W 075°04'2 8.5
2017-Apr-28 19:57N 38°51' W 075°04'814.8
2017-Apr-28 19:25N 38°59' W 075°08'614.8
2017-Apr-28 19:00N 39°05' W 075°11'814.5
2017-Apr-28 18:28N 39°11' W 075°16'714.1
2017-Apr-28 18:01N 39°16' W 075°21'713.6
2017-Apr-28 17:30N 39°21' W 075°27'612.6
2017-Apr-28 17:00N 39°26' W 075°32'510.8
2017-Apr-28 16:30N 39°32' W 075°33'510.7
2017-Apr-28 16:00N 39°37' W 075°35'510.4
2017-Apr-28 15:31N 39°41' W 075°31'510.0
2017-Apr-28 15:00N 39°46' W 075°29'1110.8
2017-Apr-28 14:00N 39°51' W 075°16'4 8.1
2017-Apr-28 13:31N 39°53' W 075°12'2 3.1
2017-Apr-28 13:00N 39°53' W 075°10'0 0.0
2017-Apr-28 12:27N 39°53' W 075°10'0 0.0
2017-Apr-28 12:00N 39°53' W 075°10'0 0.0
2017-Apr-28 11:29N 39°53' W 075°10'0 0.0
2017-Apr-28 10:56N 39°53' W 075°10'0 0.0
2017-Apr-28 10:30N 39°53' W 075°10'0 0.0
2017-Apr-28 10:00N 39°53' W 075°10'0 0.0
2017-Apr-28 09:30N 39°53' W 075°10'0 0.0
2017-Apr-28 08:59N 39°53' W 075°10'0 0.0
2017-Apr-28 08:30N 39°53' W 075°10'0 0.0
2017-Apr-28 08:00N 39°53' W 075°10'0 0.0
2017-Apr-28 07:30N 39°53' W 075°10'0 0.0
2017-Apr-28 06:59N 39°53' W 075°10'0 0.0
2017-Apr-28 06:30N 39°53' W 075°10'0 0.0
2017-Apr-28 05:59N 39°53' W 075°10'0 0.0
2017-Apr-28 05:29N 39°53' W 075°10'0 0.0
2017-Apr-28 04:59N 39°53' W 075°10'0 0.0
2017-Apr-28 04:30N 39°53' W 075°10'0 0.0
2017-Apr-28 04:00N 39°53' W 075°10'0 0.0
2017-Apr-28 03:27N 39°53' W 075°10'0 0.0
2017-Apr-28 02:59N 39°53' W 075°10'0 0.0
2017-Apr-28 02:30N 39°53' W 075°10'0 0.0
2017-Apr-28 01:59N 39°53' W 075°10'0 0.0
2017-Apr-28 01:30N 39°53' W 075°10'0 0.0
2017-Apr-28 01:00N 39°53' W 075°10'0 0.0
2017-Apr-28 00:30N 39°53' W 075°10'0 0.0
2017-Apr-27 23:59N 39°53' W 075°10'0 0.0
2017-Apr-27 23:30N 39°53' W 075°10'0 0.0
2017-Apr-27 23:00N 39°53' W 075°10'0 0.0
2017-Apr-27 22:30N 39°53' W 075°10'0 0.0
2017-Apr-27 22:00N 39°53' W 075°10'0 0.0
2017-Apr-27 21:30N 39°53' W 075°10'0 0.0
2017-Apr-27 20:59N 39°53' W 075°10'0 0.0
2017-Apr-27 20:29N 39°53' W 075°10'0 0.0
2017-Apr-27 19:59N 39°53' W 075°10'0 0.0
2017-Apr-27 19:30N 39°53' W 075°10'0 0.4
2017-Apr-27 19:00N 39°53' W 075°10'2 4.8
2017-Apr-27 18:30N 39°52' W 075°13'5 9.3
2017-Apr-27 18:00N 39°51' W 075°18'5 9.7
2017-Apr-27 17:30N 39°49' W 075°24'0 0.1
2017-Apr-27 17:00N 39°49' W 075°24'0 0.0
2017-Apr-27 16:30N 39°49' W 075°24'0 0.0
2017-Apr-27 16:00N 39°49' W 075°24'0 0.0
2017-Apr-27 15:30N 39°49' W 075°24'0 0.0
2017-Apr-27 15:00N 39°49' W 075°24'0 0.2
2017-Apr-27 14:00N 39°48' W 075°24'0 0.1
2017-Apr-27 13:30N 39°48' W 075°24'0 0.1
2017-Apr-27 13:00N 39°48' W 075°24'0 0.1
2017-Apr-27 12:30N 39°48' W 075°24'0 0.0
2017-Apr-27 12:00N 39°48' W 075°24'0 0.0
2017-Apr-27 11:27N 39°48' W 075°24'0 0.1
2017-Apr-27 11:00N 39°48' W 075°24'0 0.0
2017-Apr-27 10:24N 39°48' W 075°24'0 0.1
2017-Apr-27 09:59N 39°48' W 075°24'0 0.0
2017-Apr-27 09:21N 39°48' W 075°24'0 0.0
2017-Apr-27 08:57N 39°48' W 075°24'0 0.0
2017-Apr-27 08:24N 39°48' W 075°24'0 0.1
2017-Apr-27 07:54N 39°48' W 075°24'0 0.5
2017-Apr-27 07:30N 39°49' W 075°24'0 0.3
2017-Apr-27 07:00N 39°49' W 075°24'0 0.0
2017-Apr-27 06:27N 39°49' W 075°24'0 0.0
2017-Apr-27 06:00N 39°49' W 075°24'0 0.0
2017-Apr-27 05:30N 39°49' W 075°24'0 0.0
2017-Apr-27 05:00N 39°49' W 075°24'0 0.0
2017-Apr-27 04:27N 39°49' W 075°24'0 0.0
2017-Apr-27 04:00N 39°49' W 075°24'0 0.0
2017-Apr-27 03:30N 39°49' W 075°24'0 0.0
2017-Apr-27 03:00N 39°49' W 075°24'0 0.0
2017-Apr-27 02:30N 39°49' W 075°24'0 0.1
2017-Apr-27 02:00N 39°49' W 075°24'0 0.6
2017-Apr-27 01:30N 39°48' W 075°24'0 0.1
2017-Apr-27 01:00N 39°48' W 075°24'0 0.0
2017-Apr-27 00:30N 39°48' W 075°24'0 0.0
2017-Apr-27 00:00N 39°48' W 075°24'0 0.1
2017-Apr-26 23:30N 39°48' W 075°24'0 0.0
2017-Apr-26 23:00N 39°48' W 075°24'0 0.0
2017-Apr-26 22:27N 39°48' W 075°24'0 0.1
2017-Apr-26 22:00N 39°48' W 075°24'0 0.5
2017-Apr-26 21:30N 39°49' W 075°24'4 7.6
2017-Apr-26 21:00N 39°51' W 075°20'510.3
2017-Apr-26 20:30N 39°52' W 075°13'0 0.8
2017-Apr-26 19:56N 39°52' W 075°13'0 0.0
2017-Apr-26 19:29N 39°52' W 075°13'0 0.0
2017-Apr-26 18:59N 39°52' W 075°13'0 0.0
2017-Apr-26 18:29N 39°52' W 075°13'0 0.0
2017-Apr-26 17:59N 39°52' W 075°13'0 0.0
2017-Apr-26 17:29N 39°52' W 075°13'0 0.0
2017-Apr-26 16:59N 39°52' W 075°13'0 0.0
2017-Apr-26 16:20N 39°52' W 075°13'0 0.0
2017-Apr-26 15:50N 39°52' W 075°13'0 0.0
2017-Apr-26 13:50N 39°52' W 075°13'0 0.0
2017-Apr-26 13:26N 39°52' W 075°13'0 0.0
2017-Apr-26 12:59N 39°52' W 075°13'0 0.0
2017-Apr-26 11:53N 39°52' W 075°13'0 0.0
2017-Apr-26 07:53N 39°52' W 075°13'0 0.0
2017-Apr-26 07:29N 39°52' W 075°13'0 0.0
2017-Apr-26 06:56N 39°52' W 075°13'0 0.0
2017-Apr-26 06:23N 39°52' W 075°13'0 0.0
2017-Apr-26 05:23N 39°52' W 075°13'0 0.0
2017-Apr-26 04:56N 39°52' W 075°13'0 0.0
2017-Apr-26 04:29N 39°52' W 075°13'0 0.0
2017-Apr-26 04:00N 39°52' W 075°13'0 0.3
2017-Apr-26 03:31N 39°52' W 075°13'2 3.9
2017-Apr-26 03:00N 39°51' W 075°15'4 7.1
2017-Apr-26 02:30N 39°51' W 075°20'4 7.6
2017-Apr-26 02:00N 39°49' W 075°24'4 9.0
2017-Apr-26 01:30N 39°46' W 075°28'4 8.7
2017-Apr-26 01:00N 39°42' W 075°31'4 8.6
2017-Apr-26 00:30N 39°38' W 075°34'5 9.5
2017-Apr-26 00:00N 39°34' W 075°33'510.2
2017-Apr-25 23:30N 39°29' W 075°34'611.8
2017-Apr-25 23:00N 39°24' W 075°29'713.6
2017-Apr-25 22:30N 39°19' W 075°24'713.4
2017-Apr-25 22:00N 39°14' W 075°18'713.6
2017-Apr-25 21:30N 39°08' W 075°14'713.6
2017-Apr-25 21:00N 39°02' W 075°09'713.5
2017-Apr-25 20:30N 38°56' W 075°06'5 5.4
2017-Apr-25 19:31N 38°58' W 075°12'0 2.9
2017-Apr-25 19:30N 38°58' W 075°12'0 0.1
2017-Apr-25 18:57N 38°58' W 075°12'0 0.0
2017-Apr-25 18:30N 38°58' W 075°12'0 0.0
2017-Apr-25 18:00N 38°58' W 075°12'0 0.0
2017-Apr-25 17:30N 38°58' W 075°12'0 0.1
2017-Apr-25 17:00N 38°58' W 075°12'0 0.1
2017-Apr-25 16:28N 38°58' W 075°12'0 0.0
2017-Apr-25 15:58N 38°58' W 075°12'0 0.0
2017-Apr-25 15:28N 38°58' W 075°12'0 0.1
2017-Apr-25 14:49N 38°58' W 075°12'0 0.1
2017-Apr-25 13:58N 38°58' W 075°12'0 0.1
2017-Apr-25 13:28N 38°58' W 075°12'0 0.1
2017-Apr-25 12:58N 38°58' W 075°12'0 0.0
2017-Apr-25 12:28N 38°58' W 075°12'0 0.0
2017-Apr-25 11:19N 38°58' W 075°12'0 0.1
2017-Apr-25 10:58N 38°58' W 075°12'0 0.1
2017-Apr-25 10:28N 38°58' W 075°12'0 0.0
2017-Apr-25 09:46N 38°58' W 075°12'0 0.2
2017-Apr-25 09:28N 38°58' W 075°12'0 0.1
2017-Apr-25 08:55N 38°58' W 075°12'0 0.3
2017-Apr-25 08:25N 38°58' W 075°12'0 0.1
2017-Apr-25 07:43N 38°58' W 075°12'0 0.0
2017-Apr-25 07:28N 38°58' W 075°12'0 0.1
2017-Apr-25 06:58N 38°58' W 075°12'0 0.0
2017-Apr-25 06:28N 38°58' W 075°12'0 0.0
2017-Apr-25 05:58N 38°58' W 075°12'0 0.1
2017-Apr-25 05:28N 38°58' W 075°12'0 0.1
2017-Apr-25 04:58N 38°58' W 075°12'0 0.0
2017-Apr-25 04:28N 38°58' W 075°12'0 0.0
2017-Apr-25 03:58N 38°58' W 075°12'0 0.1
2017-Apr-25 03:22N 38°58' W 075°12'0 0.0
2017-Apr-25 02:58N 38°58' W 075°12'0 0.1
2017-Apr-25 02:28N 38°58' W 075°12'0 0.2
2017-Apr-25 01:55N 38°58' W 075°12'0 0.2
2017-Apr-25 01:28N 38°58' W 075°12'0 0.0
2017-Apr-25 00:07N 38°58' W 075°12'0 0.1
2017-Apr-24 23:58N 38°58' W 075°12'0 0.0
2017-Apr-24 21:19N 38°58' W 075°12'0 0.2
2017-Apr-24 20:58N 38°58' W 075°12'0 0.3
2017-Apr-24 20:28N 38°58' W 075°12'0 0.2
2017-Apr-24 19:16N 38°58' W 075°12'0 0.0
2017-Apr-24 18:52N 38°58' W 075°12'0 0.1
2017-Apr-24 18:28N 38°58' W 075°12'0 0.0
2017-Apr-24 17:55N 38°58' W 075°12'0 0.0
2017-Apr-24 17:16N 38°58' W 075°12'0 0.0
2017-Apr-24 16:55N 38°58' W 075°12'0 0.1
2017-Apr-24 16:01N 38°58' W 075°12'0 0.2
2017-Apr-24 15:58N 38°58' W 075°12'0 0.1
2017-Apr-24 15:28N 38°58' W 075°12'0 0.1
2017-Apr-24 14:58N 38°58' W 075°12'0 0.1
2017-Apr-24 14:28N 38°58' W 075°12'0 0.2
2017-Apr-24 13:28N 38°58' W 075°12'0 0.1
2017-Apr-24 12:34N 38°58' W 075°12'0 0.1
2017-Apr-24 12:19N 38°58' W 075°12'0 0.0
2017-Apr-24 10:43N 38°58' W 075°12'0 0.0
2017-Apr-24 10:28N 38°58' W 075°12'0 0.0
2017-Apr-24 09:25N 38°58' W 075°12'0 0.0
2017-Apr-24 08:22N 38°58' W 075°12'0 0.2
2017-Apr-24 07:58N 38°58' W 075°12'0 0.3
2017-Apr-24 07:28N 38°58' W 075°12'0 0.2
2017-Apr-24 06:52N 38°58' W 075°12'0 0.1
2017-Apr-24 06:28N 38°58' W 075°12'0 0.0
2017-Apr-24 05:58N 38°58' W 075°12'0 0.0
2017-Apr-24 05:22N 38°58' W 075°12'0 0.0
2017-Apr-24 04:52N 38°58' W 075°12'0 0.0
2017-Apr-24 04:28N 38°58' W 075°12'0 0.1
2017-Apr-24 03:58N 38°58' W 075°12'0 0.0
2017-Apr-24 03:28N 38°58' W 075°12'0 0.0
2017-Apr-24 02:58N 38°58' W 075°12'0 0.0
2017-Apr-24 02:25N 38°58' W 075°12'0 0.2
2017-Apr-24 01:58N 38°58' W 075°12'0 0.4
2017-Apr-24 01:28N 38°58' W 075°12'0 0.1
2017-Apr-24 00:58N 38°58' W 075°12'0 0.0
2017-Apr-24 00:25N 38°58' W 075°12'0 0.0
2017-Apr-23 23:58N 38°58' W 075°12'0 0.0
2017-Apr-23 23:04N 38°58' W 075°12'0 0.1
2017-Apr-23 22:58N 38°58' W 075°12'0 0.0
2017-Apr-23 20:34N 38°58' W 075°12'0 0.1
2017-Apr-23 19:10N 38°58' W 075°12'0 0.6
2017-Apr-23 18:58N 38°58' W 075°12'0 0.3
2017-Apr-23 18:28N 38°58' W 075°12'0 0.1
2017-Apr-23 17:46N 38°58' W 075°12'0 0.0
2017-Apr-23 17:28N 38°58' W 075°12'0 0.0
2017-Apr-23 16:55N 38°58' W 075°12'0 0.0
2017-Apr-23 16:10N 38°58' W 075°12'0 0.0
2017-Apr-23 15:58N 38°58' W 075°12'0 0.0
2017-Apr-23 15:16N 38°58' W 075°12'0 0.1
2017-Apr-23 14:58N 38°58' W 075°12'0 0.1
2017-Apr-23 13:58N 38°58' W 075°12'0 0.0
2017-Apr-23 13:28N 38°58' W 075°12'0 0.1
2017-Apr-23 08:28N 38°58' W 075°12'0 0.2
2017-Apr-23 07:55N 38°58' W 075°12'0 0.3
2017-Apr-23 07:28N 38°58' W 075°12'0 0.2
2017-Apr-23 06:58N 38°58' W 075°12'0 0.2
2017-Apr-23 06:28N 38°58' W 075°12'0 0.1
2017-Apr-23 05:58N 38°58' W 075°12'0 0.0
2017-Apr-23 05:28N 38°58' W 075°12'0 0.0
2017-Apr-23 04:58N 38°58' W 075°12'0 0.0
2017-Apr-23 04:28N 38°58' W 075°12'0 0.0
2017-Apr-23 03:58N 38°58' W 075°12'0 0.0
2017-Apr-23 03:25N 38°58' W 075°12'0 0.0
2017-Apr-23 02:58N 38°58' W 075°12'0 0.0
2017-Apr-23 02:28N 38°58' W 075°12'0 0.1
2017-Apr-23 01:58N 38°58' W 075°12'0 0.1
2017-Apr-23 01:28N 38°58' W 075°12'0 0.1
2017-Apr-23 00:52N 38°58' W 075°12'0 0.1
2017-Apr-23 00:19N 38°58' W 075°12'0 0.1
2017-Apr-22 23:58N 38°58' W 075°12'0 0.2
2017-Apr-22 23:28N 38°58' W 075°12'0 0.2
2017-Apr-22 22:52N 38°58' W 075°12'0 0.0
2017-Apr-22 19:19N 38°58' W 075°12'0 0.1
2017-Apr-22 16:28N 38°58' W 075°12'0 0.0
2017-Apr-22 15:58N 38°58' W 075°12'0 0.0
2017-Apr-22 15:04N 38°58' W 075°12'0 0.0
2017-Apr-22 14:58N 38°58' W 075°12'0 0.0
2017-Apr-22 14:28N 38°58' W 075°12'0 0.0
2017-Apr-22 13:25N 38°58' W 075°12'0 0.1
2017-Apr-22 12:58N 38°58' W 075°12'0 0.1
2017-Apr-22 12:25N 38°58' W 075°12'0 0.2
2017-Apr-22 11:10N 38°58' W 075°12'0 0.3
2017-Apr-22 10:58N 38°58' W 075°12'0 0.6
2017-Apr-22 10:31N 38°58' W 075°12'2 4.9
2017-Apr-22 10:00N 38°56' W 075°10'4 7.2
2017-Apr-22 09:27N 38°53' W 075°07'4 8.6
2017-Apr-22 09:00N 38°50' W 075°04'4 8.1
2017-Apr-22 08:30N 38°47' W 075°01'5 9.6
2017-Apr-22 07:58N 38°44' W 074°56'5 9.5
2017-Apr-22 07:24N 38°39' W 074°51'4 9.4
2017-Apr-22 06:57N 38°36' W 074°48'610.8
2017-Apr-22 06:23N 38°31' W 074°43'  
Track history (hours):
 
Tides and Currents Weather Stations Pressure Air Temp Water Temp Dewpoint Dewpoint Depression Visibility Wind Speed Wind Dir Waves Ship Positions

Isabella

Last reported at 2017-Apr-29 02:42 UTC. Time now 2017-Apr-29 07:39 UTC.
Position N 38°45' W 073°36'.

Length 244 m; draft 8.2 m.

Type: Tanker. MMSI: 215545000.

Date/timePositionNaut miles runAvg speedWind from/ knotsBaromVisibWave heightAir tempDewpointWater temp
2017-Apr-29 02:42N 38°45' W 073°36'811.3
2017-Apr-29 02:02N 38°46' W 073°46'1911.7
2017-Apr-29 00:25N 38°45' W 074°10'511.3
2017-Apr-29 00:00N 38°45' W 074°16'611.3
2017-Apr-28 23:30N 38°45' W 074°23'611.2
2017-Apr-28 23:00N 38°46' W 074°30'611.4
2017-Apr-28 22:30N 38°46' W 074°38'510.4
2017-Apr-28 22:00N 38°46' W 074°44'910.1
2017-Apr-28 21:06N 38°46' W 074°56'2 9.6
2017-Apr-28 20:51N 38°46' W 074°59'5 7.7
2017-Apr-28 20:09N 38°50' W 075°04'2 8.5
2017-Apr-28 19:57N 38°51' W 075°04'814.8
2017-Apr-28 19:25N 38°59' W 075°08'614.8
2017-Apr-28 19:00N 39°05' W 075°11'814.5
2017-Apr-28 18:28N 39°11' W 075°16'714.1
2017-Apr-28 18:01N 39°16' W 075°21'713.6
2017-Apr-28 17:30N 39°21' W 075°27'612.6
2017-Apr-28 17:00N 39°26' W 075°32'510.8
2017-Apr-28 16:30N 39°32' W 075°33'510.7
2017-Apr-28 16:00N 39°37' W 075°35'510.4
2017-Apr-28 15:31N 39°41' W 075°31'510.0
2017-Apr-28 15:00N 39°46' W 075°29'1110.8
2017-Apr-28 14:00N 39°51' W 075°16'4 8.1
2017-Apr-28 13:31N 39°53' W 075°12'2 3.1
2017-Apr-28 13:00N 39°53' W 075°10'0 0.0
2017-Apr-28 12:27N 39°53' W 075°10'0 0.0
2017-Apr-28 12:00N 39°53' W 075°10'0 0.0
2017-Apr-28 11:29N 39°53' W 075°10'0 0.0
2017-Apr-28 10:56N 39°53' W 075°10'0 0.0
2017-Apr-28 10:30N 39°53' W 075°10'0 0.0
2017-Apr-28 10:00N 39°53' W 075°10'0 0.0
2017-Apr-28 09:30N 39°53' W 075°10'0 0.0
2017-Apr-28 08:59N 39°53' W 075°10'0 0.0
2017-Apr-28 08:30N 39°53' W 075°10'0 0.0
2017-Apr-28 08:00N 39°53' W 075°10'0 0.0
2017-Apr-28 07:30N 39°53' W 075°10'0 0.0
2017-Apr-28 06:59N 39°53' W 075°10'0 0.0
2017-Apr-28 06:30N 39°53' W 075°10'0 0.0
2017-Apr-28 05:59N 39°53' W 075°10'0 0.0
2017-Apr-28 05:29N 39°53' W 075°10'0 0.0
2017-Apr-28 04:59N 39°53' W 075°10'0 0.0
2017-Apr-28 04:30N 39°53' W 075°10'0 0.0
2017-Apr-28 04:00N 39°53' W 075°10'0 0.0
2017-Apr-28 03:27N 39°53' W 075°10'0 0.0
2017-Apr-28 02:59N 39°53' W 075°10'0 0.0
2017-Apr-28 02:30N 39°53' W 075°10'0 0.0
2017-Apr-28 01:59N 39°53' W 075°10'0 0.0
2017-Apr-28 01:30N 39°53' W 075°10'0 0.0
2017-Apr-28 01:00N 39°53' W 075°10'0 0.0
2017-Apr-28 00:30N 39°53' W 075°10'0 0.0
2017-Apr-27 23:59N 39°53' W 075°10'0 0.0
2017-Apr-27 23:30N 39°53' W 075°10'0 0.0
2017-Apr-27 23:00N 39°53' W 075°10'0 0.0
2017-Apr-27 22:30N 39°53' W 075°10'0 0.0
2017-Apr-27 22:00N 39°53' W 075°10'0 0.0
2017-Apr-27 21:30N 39°53' W 075°10'0 0.0
2017-Apr-27 20:59N 39°53' W 075°10'0 0.0
2017-Apr-27 20:29N 39°53' W 075°10'0 0.0
2017-Apr-27 19:59N 39°53' W 075°10'0 0.0
2017-Apr-27 19:30N 39°53' W 075°10'0 0.4
2017-Apr-27 19:00N 39°53' W 075°10'2 4.8
2017-Apr-27 18:30N 39°52' W 075°13'5 9.3
2017-Apr-27 18:00N 39°51' W 075°18'5 9.7
2017-Apr-27 17:30N 39°49' W 075°24'0 0.1
2017-Apr-27 17:00N 39°49' W 075°24'0 0.0
2017-Apr-27 16:30N 39°49' W 075°24'0 0.0
2017-Apr-27 16:00N 39°49' W 075°24'0 0.0
2017-Apr-27 15:30N 39°49' W 075°24'0 0.0
2017-Apr-27 15:00N 39°49' W 075°24'0 0.2
2017-Apr-27 14:00N 39°48' W 075°24'0 0.1
2017-Apr-27 13:30N 39°48' W 075°24'0 0.1
2017-Apr-27 13:00N 39°48' W 075°24'0 0.1
2017-Apr-27 12:30N 39°48' W 075°24'0 0.0
2017-Apr-27 12:00N 39°48' W 075°24'0 0.0
2017-Apr-27 11:27N 39°48' W 075°24'0 0.1
2017-Apr-27 11:00N 39°48' W 075°24'0 0.0
2017-Apr-27 10:24N 39°48' W 075°24'0 0.1
2017-Apr-27 09:59N 39°48' W 075°24'0 0.0
2017-Apr-27 09:21N 39°48' W 075°24'0 0.0
2017-Apr-27 08:57N 39°48' W 075°24'0 0.0
2017-Apr-27 08:24N 39°48' W 075°24'0 0.1
2017-Apr-27 07:54N 39°48' W 075°24'0 0.5
2017-Apr-27 07:30N 39°49' W 075°24'0 0.3
2017-Apr-27 07:00N 39°49' W 075°24'0 0.0
2017-Apr-27 06:27N 39°49' W 075°24'0 0.0
2017-Apr-27 06:00N 39°49' W 075°24'0 0.0
2017-Apr-27 05:30N 39°49' W 075°24'0 0.0
2017-Apr-27 05:00N 39°49' W 075°24'0 0.0
2017-Apr-27 04:27N 39°49' W 075°24'0 0.0
2017-Apr-27 04:00N 39°49' W 075°24'0 0.0
2017-Apr-27 03:30N 39°49' W 075°24'0 0.0
2017-Apr-27 03:00N 39°49' W 075°24'0 0.0
2017-Apr-27 02:30N 39°49' W 075°24'0 0.1
2017-Apr-27 02:00N 39°49' W 075°24'0 0.6
2017-Apr-27 01:30N 39°48' W 075°24'0 0.1
2017-Apr-27 01:00N 39°48' W 075°24'0 0.0
2017-Apr-27 00:30N 39°48' W 075°24'0 0.0
2017-Apr-27 00:00N 39°48' W 075°24'0 0.1
2017-Apr-26 23:30N 39°48' W 075°24'0 0.0
2017-Apr-26 23:00N 39°48' W 075°24'0 0.0
2017-Apr-26 22:27N 39°48' W 075°24'0 0.1
2017-Apr-26 22:00N 39°48' W 075°24'0 0.5
2017-Apr-26 21:30N 39°49' W 075°24'4 7.6
2017-Apr-26 21:00N 39°51' W 075°20'510.3
2017-Apr-26 20:30N 39°52' W 075°13'0 0.8
2017-Apr-26 19:56N 39°52' W 075°13'0 0.0
2017-Apr-26 19:29N 39°52' W 075°13'0 0.0
2017-Apr-26 18:59N 39°52' W 075°13'0 0.0
2017-Apr-26 18:29N 39°52' W 075°13'0 0.0
2017-Apr-26 17:59N 39°52' W 075°13'0 0.0
2017-Apr-26 17:29N 39°52' W 075°13'0 0.0
2017-Apr-26 16:59N 39°52' W 075°13'0 0.0
2017-Apr-26 16:20N 39°52' W 075°13'0 0.0
2017-Apr-26 15:50N 39°52' W 075°13'0 0.0
2017-Apr-26 13:50N 39°52' W 075°13'0 0.0
2017-Apr-26 13:26N 39°52' W 075°13'0 0.0
2017-Apr-26 12:59N 39°52' W 075°13'0 0.0
2017-Apr-26 11:53N 39°52' W 075°13'0 0.0
2017-Apr-26 07:53N 39°52' W 075°13'0 0.0
2017-Apr-26 07:29N 39°52' W 075°13'0 0.0
2017-Apr-26 06:56N 39°52' W 075°13'0 0.0
2017-Apr-26 06:23N 39°52' W 075°13'0 0.0
2017-Apr-26 05:23N 39°52' W 075°13'0 0.0
2017-Apr-26 04:56N 39°52' W 075°13'0 0.0
2017-Apr-26 04:29N 39°52' W 075°13'0 0.0
2017-Apr-26 04:00N 39°52' W 075°13'0 0.3
2017-Apr-26 03:31N 39°52' W 075°13'2 3.9
2017-Apr-26 03:00N 39°51' W 075°15'4 7.1
2017-Apr-26 02:30N 39°51' W 075°20'4 7.6
2017-Apr-26 02:00N 39°49' W 075°24'4 9.0
2017-Apr-26 01:30N 39°46' W 075°28'4 8.7
2017-Apr-26 01:00N 39°42' W 075°31'4 8.6
2017-Apr-26 00:30N 39°38' W 075°34'5 9.5
2017-Apr-26 00:00N 39°34' W 075°33'510.2
2017-Apr-25 23:30N 39°29' W 075°34'611.8
2017-Apr-25 23:00N 39°24' W 075°29'713.6
2017-Apr-25 22:30N 39°19' W 075°24'713.4
2017-Apr-25 22:00N 39°14' W 075°18'713.6
2017-Apr-25 21:30N 39°08' W 075°14'713.6
2017-Apr-25 21:00N 39°02' W 075°09'713.5
2017-Apr-25 20:30N 38°56' W 075°06'5 5.4
2017-Apr-25 19:31N 38°58' W 075°12'0 2.9
2017-Apr-25 19:30N 38°58' W 075°12'0 0.1
2017-Apr-25 18:57N 38°58' W 075°12'0 0.0
2017-Apr-25 18:30N 38°58' W 075°12'0 0.0
2017-Apr-25 18:00N 38°58' W 075°12'0 0.0
2017-Apr-25 17:30N 38°58' W 075°12'0 0.1
2017-Apr-25 17:00N 38°58' W 075°12'0 0.1
2017-Apr-25 16:28N 38°58' W 075°12'0 0.0
2017-Apr-25 15:58N 38°58' W 075°12'0 0.0
2017-Apr-25 15:28N 38°58' W 075°12'0 0.1
2017-Apr-25 14:49N 38°58' W 075°12'0 0.1
2017-Apr-25 13:58N 38°58' W 075°12'0 0.1
2017-Apr-25 13:28N 38°58' W 075°12'0 0.1
2017-Apr-25 12:58N 38°58' W 075°12'0 0.0
2017-Apr-25 12:28N 38°58' W 075°12'0 0.0
2017-Apr-25 11:19N 38°58' W 075°12'0 0.1
2017-Apr-25 10:58N 38°58' W 075°12'0 0.1
2017-Apr-25 10:28N 38°58' W 075°12'0 0.0
2017-Apr-25 09:46N 38°58' W 075°12'0 0.2
2017-Apr-25 09:28N 38°58' W 075°12'0 0.1
2017-Apr-25 08:55N 38°58' W 075°12'0 0.3
2017-Apr-25 08:25N 38°58' W 075°12'0 0.1
2017-Apr-25 07:43N 38°58' W 075°12'0 0.0
2017-Apr-25 07:28N 38°58' W 075°12'0 0.1
2017-Apr-25 06:58N 38°58' W 075°12'0 0.0
2017-Apr-25 06:28N 38°58' W 075°12'0 0.0
2017-Apr-25 05:58N 38°58' W 075°12'0 0.1
2017-Apr-25 05:28N 38°58' W 075°12'0 0.1
2017-Apr-25 04:58N 38°58' W 075°12'0 0.0
2017-Apr-25 04:28N 38°58' W 075°12'0 0.0
2017-Apr-25 03:58N 38°58' W 075°12'0 0.1
2017-Apr-25 03:22N 38°58' W 075°12'0 0.0
2017-Apr-25 02:58N 38°58' W 075°12'0 0.1
2017-Apr-25 02:28N 38°58' W 075°12'0 0.2
2017-Apr-25 01:55N 38°58' W 075°12'0 0.2
2017-Apr-25 01:28N 38°58' W 075°12'0 0.0
2017-Apr-25 00:07N 38°58' W 075°12'0 0.1
2017-Apr-24 23:58N 38°58' W 075°12'0 0.0
2017-Apr-24 21:19N 38°58' W 075°12'0 0.2
2017-Apr-24 20:58N 38°58' W 075°12'0 0.3
2017-Apr-24 20:28N 38°58' W 075°12'0 0.2
2017-Apr-24 19:16N 38°58' W 075°12'0 0.0
2017-Apr-24 18:52N 38°58' W 075°12'0 0.1
2017-Apr-24 18:28N 38°58' W 075°12'0 0.0
2017-Apr-24 17:55N 38°58' W 075°12'0 0.0
2017-Apr-24 17:16N 38°58' W 075°12'0 0.0
2017-Apr-24 16:55N 38°58' W 075°12'0 0.1
2017-Apr-24 16:01N 38°58' W 075°12'0 0.2
2017-Apr-24 15:58N 38°58' W 075°12'0 0.1
2017-Apr-24 15:28N 38°58' W 075°12'0 0.1
2017-Apr-24 14:58N 38°58' W 075°12'0 0.1
2017-Apr-24 14:28N 38°58' W 075°12'0 0.2
2017-Apr-24 13:28N 38°58' W 075°12'0 0.1
2017-Apr-24 12:34N 38°58' W 075°12'0 0.1
2017-Apr-24 12:19N 38°58' W 075°12'0 0.0
2017-Apr-24 10:43N 38°58' W 075°12'0 0.0
2017-Apr-24 10:28N 38°58' W 075°12'0 0.0
2017-Apr-24 09:25N 38°58' W 075°12'0 0.0
2017-Apr-24 08:22N 38°58' W 075°12'0 0.2
2017-Apr-24 07:58N 38°58' W 075°12'0 0.3
2017-Apr-24 07:28N 38°58' W 075°12'0 0.2
2017-Apr-24 06:52N 38°58' W 075°12'0 0.1
2017-Apr-24 06:28N 38°58' W 075°12'0 0.0
2017-Apr-24 05:58N 38°58' W 075°12'0 0.0
2017-Apr-24 05:22N 38°58' W 075°12'0 0.0
2017-Apr-24 04:52N 38°58' W 075°12'0 0.0
2017-Apr-24 04:28N 38°58' W 075°12'0 0.1
2017-Apr-24 03:58N 38°58' W 075°12'0 0.0
2017-Apr-24 03:28N 38°58' W 075°12'0 0.0
2017-Apr-24 02:58N 38°58' W 075°12'0 0.0
2017-Apr-24 02:25N 38°58' W 075°12'0 0.2
2017-Apr-24 01:58N 38°58' W 075°12'0 0.4
2017-Apr-24 01:28N 38°58' W 075°12'0 0.1
2017-Apr-24 00:58N 38°58' W 075°12'0 0.0
2017-Apr-24 00:25N 38°58' W 075°12'0 0.0
2017-Apr-23 23:58N 38°58' W 075°12'0 0.0
2017-Apr-23 23:04N 38°58' W 075°12'0 0.1
2017-Apr-23 22:58N 38°58' W 075°12'0 0.0
2017-Apr-23 20:34N 38°58' W 075°12'0 0.1
2017-Apr-23 19:10N 38°58' W 075°12'0 0.6
2017-Apr-23 18:58N 38°58' W 075°12'0 0.3
2017-Apr-23 18:28N 38°58' W 075°12'0 0.1
2017-Apr-23 17:46N 38°58' W 075°12'0 0.0
2017-Apr-23 17:28N 38°58' W 075°12'0 0.0
2017-Apr-23 16:55N 38°58' W 075°12'0 0.0
2017-Apr-23 16:10N 38°58' W 075°12'0 0.0
2017-Apr-23 15:58N 38°58' W 075°12'0 0.0
2017-Apr-23 15:16N 38°58' W 075°12'0 0.1
2017-Apr-23 14:58N 38°58' W 075°12'0 0.1
2017-Apr-23 13:58N 38°58' W 075°12'0 0.0
2017-Apr-23 13:28N 38°58' W 075°12'0 0.1
2017-Apr-23 08:28N 38°58' W 075°12'0 0.2
2017-Apr-23 07:55N 38°58' W 075°12'0 0.3
2017-Apr-23 07:28N 38°58' W 075°12'0 0.2
2017-Apr-23 06:58N 38°58' W 075°12'0 0.2
2017-Apr-23 06:28N 38°58' W 075°12'0 0.1
2017-Apr-23 05:58N 38°58' W 075°12'0 0.0
2017-Apr-23 05:28N 38°58' W 075°12'0 0.0
2017-Apr-23 04:58N 38°58' W 075°12'0 0.0
2017-Apr-23 04:28N 38°58' W 075°12'0 0.0
2017-Apr-23 03:58N 38°58' W 075°12'0 0.0
2017-Apr-23 03:25N 38°58' W 075°12'0 0.0
2017-Apr-23 02:58N 38°58' W 075°12'0 0.0
2017-Apr-23 02:28N 38°58' W 075°12'0 0.1
2017-Apr-23 01:58N 38°58' W 075°12'0 0.1
2017-Apr-23 01:28N 38°58' W 075°12'0 0.1
2017-Apr-23 00:52N 38°58' W 075°12'0 0.1
2017-Apr-23 00:19N 38°58' W 075°12'0 0.1
2017-Apr-22 23:58N 38°58' W 075°12'0 0.2
2017-Apr-22 23:28N 38°58' W 075°12'0 0.2
2017-Apr-22 22:52N 38°58' W 075°12'0 0.0
2017-Apr-22 19:19N 38°58' W 075°12'0 0.1
2017-Apr-22 16:28N 38°58' W 075°12'0 0.0
2017-Apr-22 15:58N 38°58' W 075°12'0 0.0
2017-Apr-22 15:04N 38°58' W 075°12'0 0.0
2017-Apr-22 14:58N 38°58' W 075°12'0 0.0
2017-Apr-22 14:28N 38°58' W 075°12'0 0.0
2017-Apr-22 13:25N 38°58' W 075°12'0 0.1
2017-Apr-22 12:58N 38°58' W 075°12'0 0.1
2017-Apr-22 12:25N 38°58' W 075°12'0 0.2
2017-Apr-22 11:10N 38°58' W 075°12'0 0.3
2017-Apr-22 10:58N 38°58' W 075°12'0 0.6
2017-Apr-22 10:31N 38°58' W 075°12'2 4.9
2017-Apr-22 10:00N 38°56' W 075°10'4 7.2
2017-Apr-22 09:27N 38°53' W 075°07'4 8.6
2017-Apr-22 09:00N 38°50' W 075°04'4 8.1
2017-Apr-22 08:30N 38°47' W 075°01'5 9.6
2017-Apr-22 07:58N 38°44' W 074°56'5 9.5
2017-Apr-22 07:24N 38°39' W 074°51'4 9.4
2017-Apr-22 06:57N 38°36' W 074°48'610.8
2017-Apr-22 06:23N 38°31' W 074°43'  

Dump ship's entire track history